sensor_id;sensor_type;location;lat;lon;timestamp;P1;durP1;ratioP1;P2;durP2;ratioP2
3274;SDS011;1649;53.672;10.064;2023-03-05T00:01:05;8.97;;;2.23;;
3274;SDS011;1649;53.672;10.064;2023-03-05T00:03:31;11.77;;;2.30;;
3274;SDS011;1649;53.672;10.064;2023-03-05T00:05:56;7.70;;;2.03;;
3274;SDS011;1649;53.672;10.064;2023-03-05T00:08:22;13.73;;;2.40;;
3274;SDS011;1649;53.672;10.064;2023-03-05T00:10:54;6.33;;;2.40;;
3274;SDS011;1649;53.672;10.064;2023-03-05T00:13:24;8.00;;;1.80;;
3274;SDS011;1649;53.672;10.064;2023-03-05T00:15:50;5.43;;;2.20;;
3274;SDS011;1649;53.672;10.064;2023-03-05T00:18:16;16.37;;;2.63;;
3274;SDS011;1649;53.672;10.064;2023-03-05T00:20:41;10.20;;;1.93;;
3274;SDS011;1649;53.672;10.064;2023-03-05T00:23:07;10.13;;;1.93;;
3274;SDS011;1649;53.672;10.064;2023-03-05T00:25:35;6.20;;;2.00;;
3274;SDS011;1649;53.672;10.064;2023-03-05T00:28:01;6.53;;;1.90;;
3274;SDS011;1649;53.672;10.064;2023-03-05T00:30:27;5.37;;;1.70;;
3274;SDS011;1649;53.672;10.064;2023-03-05T00:32:53;12.53;;;2.43;;
3274;SDS011;1649;53.672;10.064;2023-03-05T00:35:18;7.07;;;2.10;;
3274;SDS011;1649;53.672;10.064;2023-03-05T00:37:44;5.30;;;1.77;;
3274;SDS011;1649;53.672;10.064;2023-03-05T00:40:10;9.37;;;1.80;;
3274;SDS011;1649;53.672;10.064;2023-03-05T00:42:36;7.97;;;1.70;;
3274;SDS011;1649;53.672;10.064;2023-03-05T00:45:03;5.50;;;1.77;;
3274;SDS011;1649;53.672;10.064;2023-03-05T00:47:30;6.43;;;2.23;;
3274;SDS011;1649;53.672;10.064;2023-03-05T00:49:55;7.80;;;2.23;;
3274;SDS011;1649;53.672;10.064;2023-03-05T00:52:21;10.13;;;2.03;;
3274;SDS011;1649;53.672;10.064;2023-03-05T00:54:46;5.73;;;2.10;;
3274;SDS011;1649;53.672;10.064;2023-03-05T00:57:12;12.40;;;2.10;;
3274;SDS011;1649;53.672;10.064;2023-03-05T00:59:37;4.77;;;1.80;;
3274;SDS011;1649;53.672;10.064;2023-03-05T01:02:03;4.87;;;1.80;;
3274;SDS011;1649;53.672;10.064;2023-03-05T01:04:28;8.30;;;2.10;;
3274;SDS011;1649;53.672;10.064;2023-03-05T01:06:54;7.90;;;2.40;;
3274;SDS011;1649;53.672;10.064;2023-03-05T01:09:19;10.40;;;2.27;;
3274;SDS011;1649;53.672;10.064;2023-03-05T01:11:45;10.07;;;2.13;;
3274;SDS011;1649;53.672;10.064;2023-03-05T01:14:11;6.30;;;1.50;;
3274;SDS011;1649;53.672;10.064;2023-03-05T01:16:37;7.57;;;2.00;;
3274;SDS011;1649;53.672;10.064;2023-03-05T01:19:03;9.33;;;1.90;;
3274;SDS011;1649;53.672;10.064;2023-03-05T01:21:29;6.20;;;2.70;;
3274;SDS011;1649;53.672;10.064;2023-03-05T01:23:54;8.53;;;3.23;;
3274;SDS011;1649;53.672;10.064;2023-03-05T01:26:20;7.73;;;1.73;;
3274;SDS011;1649;53.672;10.064;2023-03-05T01:28:45;5.60;;;1.97;;
3274;SDS011;1649;53.672;10.064;2023-03-05T01:31:11;7.23;;;2.33;;
3274;SDS011;1649;53.672;10.064;2023-03-05T01:33:37;6.37;;;1.87;;
3274;SDS011;1649;53.672;10.064;2023-03-05T01:36:07;11.20;;;2.13;;
3274;SDS011;1649;53.672;10.064;2023-03-05T01:38:36;7.80;;;2.20;;
3274;SDS011;1649;53.672;10.064;2023-03-05T01:41:01;8.53;;;2.53;;
3274;SDS011;1649;53.672;10.064;2023-03-05T01:43:28;7.30;;;1.93;;
3274;SDS011;1649;53.672;10.064;2023-03-05T01:48:42;5.83;;;1.97;;
3274;SDS011;1649;53.672;10.064;2023-03-05T01:51:11;9.50;;;2.50;;
3274;SDS011;1649;53.672;10.064;2023-03-05T01:53:37;7.10;;;1.77;;
3274;SDS011;1649;53.672;10.064;2023-03-05T01:56:03;10.27;;;3.10;;
3274;SDS011;1649;53.672;10.064;2023-03-05T01:58:29;11.47;;;2.40;;
3274;SDS011;1649;53.672;10.064;2023-03-05T02:00:55;6.37;;;2.30;;
3274;SDS011;1649;53.672;10.064;2023-03-05T02:03:21;10.03;;;2.60;;
3274;SDS011;1649;53.672;10.064;2023-03-05T02:05:48;8.23;;;2.30;;
3274;SDS011;1649;53.672;10.064;2023-03-05T02:08:14;11.77;;;2.70;;
3274;SDS011;1649;53.672;10.064;2023-03-05T02:10:42;10.47;;;2.73;;
3274;SDS011;1649;53.672;10.064;2023-03-05T02:13:17;7.33;;;2.40;;
3274;SDS011;1649;53.672;10.064;2023-03-05T02:15:51;11.53;;;2.60;;
3274;SDS011;1649;53.672;10.064;2023-03-05T02:18:19;6.70;;;2.43;;
3274;SDS011;1649;53.672;10.064;2023-03-05T02:20:48;8.10;;;2.20;;
3274;SDS011;1649;53.672;10.064;2023-03-05T02:23:17;10.47;;;2.20;;
3274;SDS011;1649;53.672;10.064;2023-03-05T02:25:45;4.67;;;1.70;;
3274;SDS011;1649;53.672;10.064;2023-03-05T02:28:15;9.17;;;2.50;;
3274;SDS011;1649;53.672;10.064;2023-03-05T02:30:45;7.63;;;2.90;;
3274;SDS011;1649;53.672;10.064;2023-03-05T02:33:12;7.10;;;2.40;;
3274;SDS011;1649;53.672;10.064;2023-03-05T02:35:39;7.10;;;3.00;;
3274;SDS011;1649;53.672;10.064;2023-03-05T02:38:04;10.50;;;2.80;;
3274;SDS011;1649;53.672;10.064;2023-03-05T02:40:30;7.40;;;2.97;;
3274;SDS011;1649;53.672;10.064;2023-03-05T02:42:55;8.10;;;3.10;;
3274;SDS011;1649;53.672;10.064;2023-03-05T02:45:21;10.00;;;2.70;;
3274;SDS011;1649;53.672;10.064;2023-03-05T02:47:46;9.13;;;3.73;;
3274;SDS011;1649;53.672;10.064;2023-03-05T02:50:12;6.07;;;2.80;;
3274;SDS011;1649;53.672;10.064;2023-03-05T02:52:38;8.60;;;3.30;;
3274;SDS011;1649;53.672;10.064;2023-03-05T02:55:04;5.30;;;3.03;;
3274;SDS011;1649;53.672;10.064;2023-03-05T02:57:30;5.17;;;2.33;;
3274;SDS011;1649;53.672;10.064;2023-03-05T02:59:55;7.13;;;2.70;;
3274;SDS011;1649;53.672;10.064;2023-03-05T03:02:21;7.67;;;2.90;;
3274;SDS011;1649;53.672;10.064;2023-03-05T03:04:46;6.63;;;2.40;;
3274;SDS011;1649;53.672;10.064;2023-03-05T03:07:12;7.10;;;2.70;;
3274;SDS011;1649;53.672;10.064;2023-03-05T03:09:39;10.00;;;2.63;;
3274;SDS011;1649;53.672;10.064;2023-03-05T03:12:06;7.63;;;1.90;;
3274;SDS011;1649;53.672;10.064;2023-03-05T03:14:33;6.47;;;2.37;;
3274;SDS011;1649;53.672;10.064;2023-03-05T03:17:03;6.10;;;2.33;;
3274;SDS011;1649;53.672;10.064;2023-03-05T03:19:36;5.40;;;2.03;;
3274;SDS011;1649;53.672;10.064;2023-03-05T03:22:02;4.60;;;2.27;;
3274;SDS011;1649;53.672;10.064;2023-03-05T03:24:29;5.73;;;1.93;;
3274;SDS011;1649;53.672;10.064;2023-03-05T03:26:56;8.27;;;2.70;;
3274;SDS011;1649;53.672;10.064;2023-03-05T03:29:21;6.80;;;1.83;;
3274;SDS011;1649;53.672;10.064;2023-03-05T03:31:47;5.17;;;1.73;;
3274;SDS011;1649;53.672;10.064;2023-03-05T03:34:13;5.73;;;2.17;;
3274;SDS011;1649;53.672;10.064;2023-03-05T03:36:40;5.07;;;2.70;;
3274;SDS011;1649;53.672;10.064;2023-03-05T03:39:06;10.10;;;2.70;;
3274;SDS011;1649;53.672;10.064;2023-03-05T03:41:33;6.90;;;2.90;;
3274;SDS011;1649;53.672;10.064;2023-03-05T03:44:00;5.50;;;2.73;;
3274;SDS011;1649;53.672;10.064;2023-03-05T03:46:27;6.43;;;2.17;;
3274;SDS011;1649;53.672;10.064;2023-03-05T03:48:53;6.90;;;2.67;;
3274;SDS011;1649;53.672;10.064;2023-03-05T03:51:18;6.13;;;2.57;;
3274;SDS011;1649;53.672;10.064;2023-03-05T03:53:44;8.03;;;3.50;;
3274;SDS011;1649;53.672;10.064;2023-03-05T03:56:09;7.50;;;2.87;;
3274;SDS011;1649;53.672;10.064;2023-03-05T03:58:35;4.73;;;2.20;;
3274;SDS011;1649;53.672;10.064;2023-03-05T04:01:00;5.93;;;2.57;;
3274;SDS011;1649;53.672;10.064;2023-03-05T04:03:26;6.43;;;2.80;;
3274;SDS011;1649;53.672;10.064;2023-03-05T04:05:52;5.00;;;3.13;;
3274;SDS011;1649;53.672;10.064;2023-03-05T04:08:17;8.20;;;2.50;;
3274;SDS011;1649;53.672;10.064;2023-03-05T04:10:43;10.77;;;3.27;;
3274;SDS011;1649;53.672;10.064;2023-03-05T04:13:08;10.40;;;2.37;;
3274;SDS011;1649;53.672;10.064;2023-03-05T04:15:34;6.80;;;2.63;;
3274;SDS011;1649;53.672;10.064;2023-03-05T04:17:59;6.97;;;2.47;;
3274;SDS011;1649;53.672;10.064;2023-03-05T04:20:25;5.83;;;2.10;;
3274;SDS011;1649;53.672;10.064;2023-03-05T04:22:50;9.37;;;3.00;;
3274;SDS011;1649;53.672;10.064;2023-03-05T04:25:16;9.30;;;2.70;;
3274;SDS011;1649;53.672;10.064;2023-03-05T04:27:41;6.57;;;2.03;;
3274;SDS011;1649;53.672;10.064;2023-03-05T04:30:09;7.40;;;2.13;;
3274;SDS011;1649;53.672;10.064;2023-03-05T04:32:38;6.00;;;2.30;;
3274;SDS011;1649;53.672;10.064;2023-03-05T04:35:04;5.10;;;2.20;;
3274;SDS011;1649;53.672;10.064;2023-03-05T04:37:29;4.60;;;2.20;;
3274;SDS011;1649;53.672;10.064;2023-03-05T04:39:55;13.90;;;2.70;;
3274;SDS011;1649;53.672;10.064;2023-03-05T04:42:20;5.27;;;2.07;;
3274;SDS011;1649;53.672;10.064;2023-03-05T04:44:47;10.33;;;2.17;;
3274;SDS011;1649;53.672;10.064;2023-03-05T04:47:13;5.43;;;2.03;;
3274;SDS011;1649;53.672;10.064;2023-03-05T04:49:38;7.33;;;2.30;;
3274;SDS011;1649;53.672;10.064;2023-03-05T04:52:04;5.70;;;2.30;;
3274;SDS011;1649;53.672;10.064;2023-03-05T04:54:29;6.97;;;2.00;;
3274;SDS011;1649;53.672;10.064;2023-03-05T04:56:55;5.57;;;2.37;;
3274;SDS011;1649;53.672;10.064;2023-03-05T04:59:20;6.63;;;1.90;;
3274;SDS011;1649;53.672;10.064;2023-03-05T05:01:46;5.53;;;2.10;;
3274;SDS011;1649;53.672;10.064;2023-03-05T05:04:11;4.60;;;1.60;;
3274;SDS011;1649;53.672;10.064;2023-03-05T05:06:37;7.10;;;1.60;;
3274;SDS011;1649;53.672;10.064;2023-03-05T05:09:02;8.60;;;2.20;;
3274;SDS011;1649;53.672;10.064;2023-03-05T05:11:28;6.57;;;1.80;;
3274;SDS011;1649;53.672;10.064;2023-03-05T05:13:54;4.93;;;2.00;;
3274;SDS011;1649;53.672;10.064;2023-03-05T05:16:19;10.27;;;3.30;;
3274;SDS011;1649;53.672;10.064;2023-03-05T05:18:44;11.57;;;3.17;;
3274;SDS011;1649;53.672;10.064;2023-03-05T05:21:11;11.90;;;3.93;;
3274;SDS011;1649;53.672;10.064;2023-03-05T05:23:37;8.50;;;4.30;;
3274;SDS011;1649;53.672;10.064;2023-03-05T05:26:04;11.50;;;4.27;;
3274;SDS011;1649;53.672;10.064;2023-03-05T05:28:31;10.73;;;4.87;;
3274;SDS011;1649;53.672;10.064;2023-03-05T05:30:57;13.10;;;5.40;;
3274;SDS011;1649;53.672;10.064;2023-03-05T05:33:22;11.33;;;4.20;;
3274;SDS011;1649;53.672;10.064;2023-03-05T05:35:48;13.87;;;6.00;;
3274;SDS011;1649;53.672;10.064;2023-03-05T05:38:14;12.40;;;5.23;;
3274;SDS011;1649;53.672;10.064;2023-03-05T05:40:40;15.10;;;5.73;;
3274;SDS011;1649;53.672;10.064;2023-03-05T05:43:05;16.30;;;5.90;;
3274;SDS011;1649;53.672;10.064;2023-03-05T05:45:31;10.43;;;4.70;;
3274;SDS011;1649;53.672;10.064;2023-03-05T05:47:56;14.23;;;6.30;;
3274;SDS011;1649;53.672;10.064;2023-03-05T05:50:22;10.53;;;4.73;;
3274;SDS011;1649;53.672;10.064;2023-03-05T05:52:49;10.27;;;4.87;;
3274;SDS011;1649;53.672;10.064;2023-03-05T05:55:15;11.00;;;4.80;;
3274;SDS011;1649;53.672;10.064;2023-03-05T05:57:40;11.90;;;5.37;;
3274;SDS011;1649;53.672;10.064;2023-03-05T06:00:07;11.17;;;4.97;;
3274;SDS011;1649;53.672;10.064;2023-03-05T06:02:37;8.87;;;4.10;;
3274;SDS011;1649;53.672;10.064;2023-03-05T06:05:03;8.53;;;4.43;;
3274;SDS011;1649;53.672;10.064;2023-03-05T06:07:29;12.50;;;4.43;;
3274;SDS011;1649;53.672;10.064;2023-03-05T06:09:55;8.00;;;3.50;;
3274;SDS011;1649;53.672;10.064;2023-03-05T06:12:21;10.40;;;3.73;;
3274;SDS011;1649;53.672;10.064;2023-03-05T06:14:46;21.23;;;3.33;;
3274;SDS011;1649;53.672;10.064;2023-03-05T06:17:12;6.80;;;3.10;;
3274;SDS011;1649;53.672;10.064;2023-03-05T06:19:37;9.97;;;4.20;;
3274;SDS011;1649;53.672;10.064;2023-03-05T06:22:03;12.30;;;2.77;;
3274;SDS011;1649;53.672;10.064;2023-03-05T06:24:28;5.37;;;2.60;;
3274;SDS011;1649;53.672;10.064;2023-03-05T06:26:54;9.87;;;2.63;;
3274;SDS011;1649;53.672;10.064;2023-03-05T06:29:19;8.93;;;2.73;;
3274;SDS011;1649;53.672;10.064;2023-03-05T06:31:45;5.67;;;2.13;;
3274;SDS011;1649;53.672;10.064;2023-03-05T06:34:10;7.20;;;2.80;;
3274;SDS011;1649;53.672;10.064;2023-03-05T06:36:37;8.47;;;3.37;;
3274;SDS011;1649;53.672;10.064;2023-03-05T06:39:04;8.70;;;2.67;;
3274;SDS011;1649;53.672;10.064;2023-03-05T06:41:30;6.70;;;2.30;;
3274;SDS011;1649;53.672;10.064;2023-03-05T06:43:57;6.90;;;2.20;;
3274;SDS011;1649;53.672;10.064;2023-03-05T06:46:34;5.80;;;2.17;;
3274;SDS011;1649;53.672;10.064;2023-03-05T06:49:02;6.57;;;2.03;;
3274;SDS011;1649;53.672;10.064;2023-03-05T06:51:29;5.73;;;1.93;;
3274;SDS011;1649;53.672;10.064;2023-03-05T06:54:00;10.63;;;2.00;;
3274;SDS011;1649;53.672;10.064;2023-03-05T06:56:28;4.97;;;2.30;;
3274;SDS011;1649;53.672;10.064;2023-03-05T06:58:53;7.30;;;2.30;;
3274;SDS011;1649;53.672;10.064;2023-03-05T07:01:19;5.60;;;2.13;;
3274;SDS011;1649;53.672;10.064;2023-03-05T07:03:47;9.33;;;1.87;;
3274;SDS011;1649;53.672;10.064;2023-03-05T07:06:14;6.23;;;1.93;;
3274;SDS011;1649;53.672;10.064;2023-03-05T07:08:40;14.70;;;2.23;;
3274;SDS011;1649;53.672;10.064;2023-03-05T07:11:24;5.80;;;1.97;;
3274;SDS011;1649;53.672;10.064;2023-03-05T07:13:50;4.63;;;1.60;;
3274;SDS011;1649;53.672;10.064;2023-03-05T07:16:16;12.27;;;1.83;;
3274;SDS011;1649;53.672;10.064;2023-03-05T07:18:50;5.00;;;1.90;;
3274;SDS011;1649;53.672;10.064;2023-03-05T07:21:17;8.70;;;1.80;;
3274;SDS011;1649;53.672;10.064;2023-03-05T07:23:44;6.37;;;1.50;;
3274;SDS011;1649;53.672;10.064;2023-03-05T07:26:10;5.63;;;1.40;;
3274;SDS011;1649;53.672;10.064;2023-03-05T07:28:36;4.30;;;2.10;;
3274;SDS011;1649;53.672;10.064;2023-03-05T07:31:03;4.57;;;1.40;;
3274;SDS011;1649;53.672;10.064;2023-03-05T07:33:30;9.30;;;1.60;;
3274;SDS011;1649;53.672;10.064;2023-03-05T07:35:56;4.23;;;1.20;;
3274;SDS011;1649;53.672;10.064;2023-03-05T07:38:22;5.40;;;1.80;;
3274;SDS011;1649;53.672;10.064;2023-03-05T07:40:48;5.07;;;1.73;;
3274;SDS011;1649;53.672;10.064;2023-03-05T07:43:14;4.70;;;1.50;;
3274;SDS011;1649;53.672;10.064;2023-03-05T07:45:40;6.47;;;2.30;;
3274;SDS011;1649;53.672;10.064;2023-03-05T07:48:07;5.57;;;2.07;;
3274;SDS011;1649;53.672;10.064;2023-03-05T07:50:37;5.20;;;1.43;;
3274;SDS011;1649;53.672;10.064;2023-03-05T07:53:03;5.37;;;1.70;;
3274;SDS011;1649;53.672;10.064;2023-03-05T07:55:29;5.97;;;1.80;;
3274;SDS011;1649;53.672;10.064;2023-03-05T07:57:54;6.47;;;1.67;;
3274;SDS011;1649;53.672;10.064;2023-03-05T08:00:20;9.43;;;1.73;;
3274;SDS011;1649;53.672;10.064;2023-03-05T08:02:45;12.13;;;1.97;;
3274;SDS011;1649;53.672;10.064;2023-03-05T08:05:12;5.37;;;1.50;;
3274;SDS011;1649;53.672;10.064;2023-03-05T08:07:38;3.67;;;1.00;;
3274;SDS011;1649;53.672;10.064;2023-03-05T08:10:03;4.47;;;1.40;;
3274;SDS011;1649;53.672;10.064;2023-03-05T08:12:29;5.00;;;1.30;;
3274;SDS011;1649;53.672;10.064;2023-03-05T08:14:55;8.13;;;1.60;;
3274;SDS011;1649;53.672;10.064;2023-03-05T08:17:20;6.77;;;1.60;;
3274;SDS011;1649;53.672;10.064;2023-03-05T08:19:46;6.43;;;1.60;;
3274;SDS011;1649;53.672;10.064;2023-03-05T08:22:11;5.03;;;1.30;;
3274;SDS011;1649;53.672;10.064;2023-03-05T08:24:39;4.20;;;1.40;;
3274;SDS011;1649;53.672;10.064;2023-03-05T08:27:06;8.90;;;1.70;;
3274;SDS011;1649;53.672;10.064;2023-03-05T08:29:31;5.13;;;1.40;;
3274;SDS011;1649;53.672;10.064;2023-03-05T08:31:56;7.73;;;1.47;;
3274;SDS011;1649;53.672;10.064;2023-03-05T08:34:22;5.50;;;2.00;;
3274;SDS011;1649;53.672;10.064;2023-03-05T08:36:47;5.23;;;1.40;;
3274;SDS011;1649;53.672;10.064;2023-03-05T08:39:13;4.90;;;1.27;;
3274;SDS011;1649;53.672;10.064;2023-03-05T08:41:39;5.07;;;1.20;;
3274;SDS011;1649;53.672;10.064;2023-03-05T08:44:05;4.37;;;1.33;;
3274;SDS011;1649;53.672;10.064;2023-03-05T08:46:30;9.37;;;1.80;;
3274;SDS011;1649;53.672;10.064;2023-03-05T08:48:56;3.90;;;1.50;;
3274;SDS011;1649;53.672;10.064;2023-03-05T08:51:22;5.83;;;1.70;;
3274;SDS011;1649;53.672;10.064;2023-03-05T08:53:49;4.73;;;1.60;;
3274;SDS011;1649;53.672;10.064;2023-03-05T08:56:16;5.70;;;1.67;;
3274;SDS011;1649;53.672;10.064;2023-03-05T08:58:41;5.63;;;1.33;;
3274;SDS011;1649;53.672;10.064;2023-03-05T09:01:07;5.17;;;1.10;;
3274;SDS011;1649;53.672;10.064;2023-03-05T09:03:33;4.53;;;1.50;;
3274;SDS011;1649;53.672;10.064;2023-03-05T09:05:59;4.30;;;1.10;;
3274;SDS011;1649;53.672;10.064;2023-03-05T09:08:25;8.67;;;2.10;;
3274;SDS011;1649;53.672;10.064;2023-03-05T09:10:51;6.50;;;1.57;;
3274;SDS011;1649;53.672;10.064;2023-03-05T09:13:17;5.00;;;1.73;;
3274;SDS011;1649;53.672;10.064;2023-03-05T09:15:42;5.03;;;1.60;;
3274;SDS011;1649;53.672;10.064;2023-03-05T09:18:08;6.40;;;1.80;;
3274;SDS011;1649;53.672;10.064;2023-03-05T09:20:34;5.80;;;2.10;;
3274;SDS011;1649;53.672;10.064;2023-03-05T09:23:00;5.90;;;2.07;;
3274;SDS011;1649;53.672;10.064;2023-03-05T09:25:25;9.03;;;1.60;;
3274;SDS011;1649;53.672;10.064;2023-03-05T09:27:51;7.20;;;2.00;;
3274;SDS011;1649;53.672;10.064;2023-03-05T09:30:16;4.80;;;1.47;;
3274;SDS011;1649;53.672;10.064;2023-03-05T09:32:42;4.80;;;1.53;;
3274;SDS011;1649;53.672;10.064;2023-03-05T09:35:08;3.37;;;1.30;;
3274;SDS011;1649;53.672;10.064;2023-03-05T09:37:34;6.67;;;1.80;;
3274;SDS011;1649;53.672;10.064;2023-03-05T09:39:59;6.33;;;2.40;;
3274;SDS011;1649;53.672;10.064;2023-03-05T09:45:20;7.63;;;1.80;;
3274;SDS011;1649;53.672;10.064;2023-03-05T09:50:32;5.00;;;1.70;;
3274;SDS011;1649;53.672;10.064;2023-03-05T09:56:10;7.43;;;1.83;;
3274;SDS011;1649;53.672;10.064;2023-03-05T09:58:48;6.43;;;2.07;;
3274;SDS011;1649;53.672;10.064;2023-03-05T10:01:41;6.10;;;1.70;;
3274;SDS011;1649;53.672;10.064;2023-03-05T10:07:05;6.27;;;1.70;;
3274;SDS011;1649;53.672;10.064;2023-03-05T10:09:42;6.73;;;1.80;;
3274;SDS011;1649;53.672;10.064;2023-03-05T10:14:52;6.80;;;1.83;;
3274;SDS011;1649;53.672;10.064;2023-03-05T10:18:02;5.87;;;1.60;;
3274;SDS011;1649;53.672;10.064;2023-03-05T10:31:23;7.77;;;1.40;;
3274;SDS011;1649;53.672;10.064;2023-03-05T10:39:51;7.77;;;1.63;;
3274;SDS011;1649;53.672;10.064;2023-03-05T10:45:22;4.83;;;2.00;;
3274;SDS011;1649;53.672;10.064;2023-03-05T10:47:54;6.13;;;1.63;;
3274;SDS011;1649;53.672;10.064;2023-03-05T10:50:41;6.27;;;1.63;;
3274;SDS011;1649;53.672;10.064;2023-03-05T10:56:12;4.30;;;1.20;;
3274;SDS011;1649;53.672;10.064;2023-03-05T10:58:39;4.63;;;1.40;;
3274;SDS011;1649;53.672;10.064;2023-03-05T11:03:56;4.87;;;1.77;;
3274;SDS011;1649;53.672;10.064;2023-03-05T11:06:29;4.27;;;1.30;;
3274;SDS011;1649;53.672;10.064;2023-03-05T11:14:28;6.73;;;2.20;;
3274;SDS011;1649;53.672;10.064;2023-03-05T11:16:57;5.10;;;1.77;;
3274;SDS011;1649;53.672;10.064;2023-03-05T11:19:24;5.30;;;2.03;;
3274;SDS011;1649;53.672;10.064;2023-03-05T11:24:34;4.47;;;1.87;;
3274;SDS011;1649;53.672;10.064;2023-03-05T11:27:01;4.40;;;1.27;;
3274;SDS011;1649;53.672;10.064;2023-03-05T11:29:46;5.00;;;1.30;;
3274;SDS011;1649;53.672;10.064;2023-03-05T11:32:14;3.70;;;1.20;;
3274;SDS011;1649;53.672;10.064;2023-03-05T11:34:43;3.20;;;1.30;;
3274;SDS011;1649;53.672;10.064;2023-03-05T11:37:17;3.70;;;1.47;;
3274;SDS011;1649;53.672;10.064;2023-03-05T11:40:33;3.43;;;1.53;;
3274;SDS011;1649;53.672;10.064;2023-03-05T11:42:43;5.50;;;1.30;;
3274;SDS011;1649;53.672;10.064;2023-03-05T11:45:16;3.57;;;1.30;;
3274;SDS011;1649;53.672;10.064;2023-03-05T11:47:44;5.37;;;1.57;;
3274;SDS011;1649;53.672;10.064;2023-03-05T11:50:21;3.60;;;1.00;;
3274;SDS011;1649;53.672;10.064;2023-03-05T11:52:56;5.10;;;1.57;;
3274;SDS011;1649;53.672;10.064;2023-03-05T11:55:31;4.97;;;1.83;;
3274;SDS011;1649;53.672;10.064;2023-03-05T12:00:59;5.20;;;1.80;;
3274;SDS011;1649;53.672;10.064;2023-03-05T12:03:30;3.87;;;1.70;;
3274;SDS011;1649;53.672;10.064;2023-03-05T12:06:01;5.77;;;2.10;;
3274;SDS011;1649;53.672;10.064;2023-03-05T12:08:30;5.33;;;2.13;;
3274;SDS011;1649;53.672;10.064;2023-03-05T12:11:00;9.40;;;2.20;;
3274;SDS011;1649;53.672;10.064;2023-03-05T12:13:39;7.23;;;2.40;;
3274;SDS011;1649;53.672;10.064;2023-03-05T12:16:24;5.03;;;2.50;;
3274;SDS011;1649;53.672;10.064;2023-03-05T12:19:09;5.20;;;2.63;;
3274;SDS011;1649;53.672;10.064;2023-03-05T12:21:50;6.00;;;3.20;;
3274;SDS011;1649;53.672;10.064;2023-03-05T12:34:59;6.33;;;2.90;;
3274;SDS011;1649;53.672;10.064;2023-03-05T12:40:18;5.90;;;3.20;;
3274;SDS011;1649;53.672;10.064;2023-03-05T12:45:50;4.90;;;1.87;;
3274;SDS011;1649;53.672;10.064;2023-03-05T12:53:09;6.63;;;2.70;;
3274;SDS011;1649;53.672;10.064;2023-03-05T13:00:56;6.37;;;1.53;;
3274;SDS011;1649;53.672;10.064;2023-03-05T13:03:46;3.40;;;1.30;;
3274;SDS011;1649;53.672;10.064;2023-03-05T13:06:23;5.20;;;2.10;;
3274;SDS011;1649;53.672;10.064;2023-03-05T13:08:59;4.70;;;1.50;;
3274;SDS011;1649;53.672;10.064;2023-03-05T13:11:28;6.30;;;1.57;;
3274;SDS011;1649;53.672;10.064;2023-03-05T13:13:58;4.80;;;1.20;;
3274;SDS011;1649;53.672;10.064;2023-03-05T13:16:25;3.27;;;1.30;;
3274;SDS011;1649;53.672;10.064;2023-03-05T13:18:53;3.30;;;1.50;;
3274;SDS011;1649;53.672;10.064;2023-03-05T13:21:25;4.40;;;1.37;;
3274;SDS011;1649;53.672;10.064;2023-03-05T13:23:54;4.00;;;1.43;;
3274;SDS011;1649;53.672;10.064;2023-03-05T13:29:10;4.30;;;1.80;;
3274;SDS011;1649;53.672;10.064;2023-03-05T13:31:48;3.50;;;1.40;;
3274;SDS011;1649;53.672;10.064;2023-03-05T13:34:20;3.70;;;1.60;;
3274;SDS011;1649;53.672;10.064;2023-03-05T13:36:54;7.03;;;2.23;;
3274;SDS011;1649;53.672;10.064;2023-03-05T13:39:25;4.70;;;1.43;;
3274;SDS011;1649;53.672;10.064;2023-03-05T13:42:00;5.33;;;1.57;;
3274;SDS011;1649;53.672;10.064;2023-03-05T13:44:31;4.40;;;2.13;;
3274;SDS011;1649;53.672;10.064;2023-03-05T13:47:17;4.30;;;2.30;;
3274;SDS011;1649;53.672;10.064;2023-03-05T13:49:44;5.47;;;1.70;;
3274;SDS011;1649;53.672;10.064;2023-03-05T13:52:11;5.00;;;1.80;;
3274;SDS011;1649;53.672;10.064;2023-03-05T13:54:47;5.27;;;1.60;;
3274;SDS011;1649;53.672;10.064;2023-03-05T13:57:31;4.03;;;1.70;;
3274;SDS011;1649;53.672;10.064;2023-03-05T14:00:00;4.73;;;1.97;;
3274;SDS011;1649;53.672;10.064;2023-03-05T14:02:25;6.70;;;1.97;;
3274;SDS011;1649;53.672;10.064;2023-03-05T14:04:52;4.93;;;1.80;;
3274;SDS011;1649;53.672;10.064;2023-03-05T14:07:27;6.53;;;2.23;;
3274;SDS011;1649;53.672;10.064;2023-03-05T14:10:18;6.70;;;2.23;;
3274;SDS011;1649;53.672;10.064;2023-03-05T14:12:55;5.33;;;1.80;;
3274;SDS011;1649;53.672;10.064;2023-03-05T14:15:26;6.67;;;1.80;;
3274;SDS011;1649;53.672;10.064;2023-03-05T14:20:37;6.67;;;1.90;;
3274;SDS011;1649;53.672;10.064;2023-03-05T14:23:24;7.10;;;2.10;;
3274;SDS011;1649;53.672;10.064;2023-03-05T14:25:52;5.90;;;1.60;;
3274;SDS011;1649;53.672;10.064;2023-03-05T14:28:52;8.93;;;1.53;;
3274;SDS011;1649;53.672;10.064;2023-03-05T14:31:20;3.60;;;1.30;;
3274;SDS011;1649;53.672;10.064;2023-03-05T14:33:46;6.20;;;1.60;;
3274;SDS011;1649;53.672;10.064;2023-03-05T14:36:13;3.60;;;1.40;;
3274;SDS011;1649;53.672;10.064;2023-03-05T14:38:46;5.57;;;1.80;;
3274;SDS011;1649;53.672;10.064;2023-03-05T14:44:10;6.73;;;1.53;;
3274;SDS011;1649;53.672;10.064;2023-03-05T14:46:36;4.57;;;1.30;;
3274;SDS011;1649;53.672;10.064;2023-03-05T14:49:02;7.00;;;1.60;;
3274;SDS011;1649;53.672;10.064;2023-03-05T14:51:28;7.70;;;1.60;;
3274;SDS011;1649;53.672;10.064;2023-03-05T14:53:54;7.40;;;1.90;;
3274;SDS011;1649;53.672;10.064;2023-03-05T14:56:23;6.53;;;1.50;;
3274;SDS011;1649;53.672;10.064;2023-03-05T14:58:50;5.87;;;1.70;;
3274;SDS011;1649;53.672;10.064;2023-03-05T15:01:16;5.10;;;1.60;;
3274;SDS011;1649;53.672;10.064;2023-03-05T15:03:42;5.17;;;1.30;;
3274;SDS011;1649;53.672;10.064;2023-03-05T15:06:13;6.67;;;2.27;;
3274;SDS011;1649;53.672;10.064;2023-03-05T15:08:54;6.20;;;1.77;;
3274;SDS011;1649;53.672;10.064;2023-03-05T15:11:19;3.97;;;1.30;;
3274;SDS011;1649;53.672;10.064;2023-03-05T15:13:46;5.17;;;2.10;;
3274;SDS011;1649;53.672;10.064;2023-03-05T15:16:14;5.83;;;2.00;;
3274;SDS011;1649;53.672;10.064;2023-03-05T15:18:41;4.50;;;1.50;;
3274;SDS011;1649;53.672;10.064;2023-03-05T15:21:06;4.57;;;1.30;;
3274;SDS011;1649;53.672;10.064;2023-03-05T15:23:32;4.13;;;1.50;;
3274;SDS011;1649;53.672;10.064;2023-03-05T15:26:02;3.27;;;1.50;;
3274;SDS011;1649;53.672;10.064;2023-03-05T15:28:30;9.10;;;1.80;;
3274;SDS011;1649;53.672;10.064;2023-03-05T15:31:03;5.27;;;1.37;;
3274;SDS011;1649;53.672;10.064;2023-03-05T15:33:29;5.57;;;1.40;;
3274;SDS011;1649;53.672;10.064;2023-03-05T15:35:56;6.83;;;1.30;;
3274;SDS011;1649;53.672;10.064;2023-03-05T15:38:22;4.50;;;1.60;;
3274;SDS011;1649;53.672;10.064;2023-03-05T15:40:48;4.27;;;1.60;;
3274;SDS011;1649;53.672;10.064;2023-03-05T15:43:14;5.37;;;1.20;;
3274;SDS011;1649;53.672;10.064;2023-03-05T15:45:40;7.27;;;1.50;;
3274;SDS011;1649;53.672;10.064;2023-03-05T15:48:06;4.50;;;1.33;;
3274;SDS011;1649;53.672;10.064;2023-03-05T15:50:31;8.63;;;1.80;;
3274;SDS011;1649;53.672;10.064;2023-03-05T15:52:57;4.93;;;2.03;;
3274;SDS011;1649;53.672;10.064;2023-03-05T15:55:23;5.50;;;2.07;;
3274;SDS011;1649;53.672;10.064;2023-03-05T15:57:49;7.70;;;1.97;;
3274;SDS011;1649;53.672;10.064;2023-03-05T16:00:17;8.83;;;3.30;;
3274;SDS011;1649;53.672;10.064;2023-03-05T16:02:45;4.60;;;1.60;;
3274;SDS011;1649;53.672;10.064;2023-03-05T16:05:11;5.10;;;1.53;;
3274;SDS011;1649;53.672;10.064;2023-03-05T16:07:37;4.07;;;1.43;;
3274;SDS011;1649;53.672;10.064;2023-03-05T16:10:05;5.87;;;1.77;;
3274;SDS011;1649;53.672;10.064;2023-03-05T16:12:35;5.20;;;2.00;;
3274;SDS011;1649;53.672;10.064;2023-03-05T16:15:05;4.83;;;1.60;;
3274;SDS011;1649;53.672;10.064;2023-03-05T16:17:32;5.47;;;1.83;;
3274;SDS011;1649;53.672;10.064;2023-03-05T16:19:58;6.23;;;2.30;;
3274;SDS011;1649;53.672;10.064;2023-03-05T16:22:24;6.03;;;2.23;;
3274;SDS011;1649;53.672;10.064;2023-03-05T16:24:49;7.27;;;2.47;;
3274;SDS011;1649;53.672;10.064;2023-03-05T16:27:15;7.00;;;1.80;;
3274;SDS011;1649;53.672;10.064;2023-03-05T16:29:40;6.03;;;2.13;;
3274;SDS011;1649;53.672;10.064;2023-03-05T16:32:06;6.73;;;1.80;;
3274;SDS011;1649;53.672;10.064;2023-03-05T16:34:31;12.23;;;1.80;;